AFL1016 UWLL-UUEE
Flight info
| Callsign | AFL1016 |
|---|---|
| Flight time | 1h 9m |
| Altitude | 38000 |
| Route | ARPUD1L ARPUD T750 OKSUD T787 OTKOL T784 LARNO T291 URIDU L158 DIMGI DIMGI3E |
| Aircraft | A320/M-SDE3FGHIRWY/LB1 |
Departure
| Time | 2026-04-30 17:41 |
|---|---|
| Airport | Ulyanovsk Baratayevka Airport (UWLL) |
Arrival
| Time | 2026-04-30 18:50 |
|---|---|
| Airport | Sheremetyevo International Airport (UUEE) |
| Time | Latitude | Longitude | Altitude | Speed | Heading |
|---|---|---|---|---|---|
| 2026-04-30 17:39 | 54.26415 | 48.21916 | 438 ft | 12 kts | 9° |
| 2026-04-30 17:41 | 54.30772 | 48.26563 | 3331 ft | 149 kts | 32° |
| 2026-04-30 17:42 | 54.32810 | 48.28516 | 4013 ft | 202 kts | 11° |
| 2026-04-30 17:42 | 54.36142 | 48.23116 | 5344 ft | 263 kts | 294° |
| 2026-04-30 17:43 | 54.37590 | 48.17269 | 7392 ft | 269 kts | 292° |
| 2026-04-30 17:44 | 54.40057 | 48.08426 | 9945 ft | 277 kts | 294° |
| 2026-04-30 17:44 | 54.42857 | 47.99149 | 11130 ft | 313 kts | 294° |
| 2026-04-30 17:46 | 54.48045 | 47.81896 | 15184 ft | 335 kts | 291° |
| 2026-04-30 17:47 | 54.52120 | 47.67140 | 18178 ft | 347 kts | 289° |
| 2026-04-30 17:48 | 54.56357 | 47.51798 | 20670 ft | 362 kts | 288° |
| 2026-04-30 17:48 | 54.59625 | 47.39921 | 22494 ft | 370 kts | 288° |
| 2026-04-30 17:49 | 54.64107 | 47.23571 | 24598 ft | 382 kts | 288° |
| 2026-04-30 17:50 | 54.68684 | 47.06659 | 26302 ft | 397 kts | 288° |
| 2026-04-30 17:51 | 54.72227 | 46.93516 | 27509 ft | 408 kts | 288° |
| 2026-04-30 17:52 | 54.75877 | 46.79918 | 28680 ft | 420 kts | 288° |
| 2026-04-30 17:53 | 54.82390 | 46.56637 | 30294 ft | 450 kts | 300° |
| 2026-04-30 17:54 | 54.90267 | 46.39290 | 31525 ft | 460 kts | 304° |
| 2026-04-30 17:55 | 54.98138 | 46.21826 | 33274 ft | 455 kts | 304° |
| 2026-04-30 17:56 | 55.05856 | 46.04576 | 34865 ft | 450 kts | 304° |
| 2026-04-30 17:57 | 55.11634 | 45.91637 | 35700 ft | 452 kts | 305° |
| 2026-04-30 17:58 | 55.16770 | 45.80037 | 36438 ft | 452 kts | 305° |
| 2026-04-30 17:59 | 55.24443 | 45.62621 | 37474 ft | 452 kts | 305° |
| 2026-04-30 18:00 | 55.32103 | 45.45115 | 38162 ft | 452 kts | 306° |
| 2026-04-30 18:01 | 55.41565 | 45.23273 | 38152 ft | 449 kts | 305° |
| 2026-04-30 18:02 | 55.52894 | 44.96889 | 38173 ft | 450 kts | 305° |
| 2026-04-30 18:03 | 55.56882 | 44.82242 | 38173 ft | 443 kts | 279° |
| 2026-04-30 18:04 | 55.57509 | 44.66028 | 38166 ft | 441 kts | 271° |
| 2026-04-30 18:06 | 55.58553 | 44.22622 | 38172 ft | 443 kts | 271° |
| 2026-04-30 18:08 | 55.59343 | 43.84576 | 38189 ft | 443 kts | 275° |
| 2026-04-30 18:09 | 55.63889 | 43.64540 | 38186 ft | 445 kts | 300° |
| 2026-04-30 18:10 | 55.70065 | 43.45487 | 38187 ft | 446 kts | 299° |
| 2026-04-30 18:11 | 55.79777 | 43.11220 | 38195 ft | 444 kts | 278° |
| 2026-04-30 18:13 | 55.81361 | 42.83951 | 38188 ft | 445 kts | 275° |
| 2026-04-30 18:14 | 55.82857 | 42.56562 | 38204 ft | 445 kts | 275° |
| 2026-04-30 18:15 | 55.84576 | 42.23616 | 38211 ft | 446 kts | 275° |
| 2026-04-30 18:16 | 55.85673 | 42.01662 | 38219 ft | 446 kts | 275° |
| 2026-04-30 18:17 | 55.86197 | 41.90662 | 38223 ft | 446 kts | 275° |
| 2026-04-30 18:18 | 55.86656 | 41.74127 | 38220 ft | 446 kts | 267° |
| 2026-04-30 18:18 | 55.86328 | 41.63087 | 38224 ft | 446 kts | 267° |
| 2026-04-30 18:19 | 55.85996 | 41.52035 | 38224 ft | 446 kts | 267° |
| 2026-04-30 18:19 | 55.85657 | 41.40994 | 38222 ft | 446 kts | 267° |
| 2026-04-30 18:20 | 55.85306 | 41.30037 | 38226 ft | 446 kts | 267° |
| 2026-04-30 18:20 | 55.84942 | 41.19038 | 38212 ft | 435 kts | 267° |
| 2026-04-30 18:20 | 55.84761 | 41.13679 | 37796 ft | 430 kts | 267° |
| 2026-04-30 18:21 | 55.84582 | 41.08464 | 37368 ft | 426 kts | 267° |
| 2026-04-30 18:21 | 55.84400 | 41.03222 | 36941 ft | 421 kts | 267° |
| 2026-04-30 18:21 | 55.84217 | 40.98040 | 36527 ft | 417 kts | 267° |
| 2026-04-30 18:21 | 55.84032 | 40.92900 | 36117 ft | 414 kts | 267° |
| 2026-04-30 18:22 | 55.83851 | 40.87812 | 35714 ft | 410 kts | 267° |
| 2026-04-30 18:22 | 55.83494 | 40.77756 | 34918 ft | 403 kts | 267° |
| 2026-04-30 18:22 | 55.83314 | 40.72844 | 34539 ft | 399 kts | 267° |
| 2026-04-30 18:23 | 55.83127 | 40.67940 | 34149 ft | 396 kts | 267° |
| 2026-04-30 18:23 | 55.82943 | 40.63075 | 33689 ft | 392 kts | 267° |
| 2026-04-30 18:23 | 55.82757 | 40.58240 | 33235 ft | 389 kts | 267° |
| 2026-04-30 18:23 | 55.82567 | 40.53502 | 32793 ft | 386 kts | 266° |
| 2026-04-30 18:24 | 55.82183 | 40.44054 | 31928 ft | 379 kts | 266° |
| 2026-04-30 18:24 | 55.81991 | 40.39390 | 31507 ft | 377 kts | 266° |
| 2026-04-30 18:24 | 55.81799 | 40.34744 | 31085 ft | 375 kts | 267° |
| 2026-04-30 18:25 | 55.81609 | 40.30170 | 30678 ft | 374 kts | 267° |
| 2026-04-30 18:25 | 55.81217 | 40.20917 | 29730 ft | 374 kts | 267° |
| 2026-04-30 18:25 | 55.81021 | 40.16297 | 29196 ft | 374 kts | 266° |
| 2026-04-30 18:26 | 55.80616 | 40.07059 | 28176 ft | 374 kts | 266° |
| 2026-04-30 18:26 | 55.80409 | 40.02445 | 27681 ft | 374 kts | 266° |
| 2026-04-30 18:26 | 55.80206 | 39.97886 | 27201 ft | 374 kts | 266° |
| 2026-04-30 18:27 | 55.79787 | 39.88668 | 26302 ft | 373 kts | 266° |
| 2026-04-30 18:27 | 55.79578 | 39.84065 | 26203 ft | 373 kts | 266° |
| 2026-04-30 18:28 | 55.79095 | 39.74736 | 26230 ft | 394 kts | 264° |
| 2026-04-30 18:28 | 55.78772 | 39.69844 | 26225 ft | 401 kts | 263° |
| 2026-04-30 18:28 | 55.78081 | 39.60126 | 26127 ft | 379 kts | 263° |
| 2026-04-30 18:29 | 55.77755 | 39.55574 | 25558 ft | 366 kts | 264° |
| 2026-04-30 18:29 | 55.76854 | 39.42487 | 23385 ft | 352 kts | 263° |
| 2026-04-30 18:30 | 55.76356 | 39.35196 | 22192 ft | 357 kts | 263° |
| 2026-04-30 18:30 | 55.75636 | 39.24929 | 20608 ft | 363 kts | 264° |
| 2026-04-30 18:31 | 55.75319 | 39.20460 | 20079 ft | 361 kts | 264° |
| 2026-04-30 18:31 | 55.74701 | 39.11846 | 19562 ft | 343 kts | 263° |
| 2026-04-30 18:32 | 55.74108 | 39.03676 | 19060 ft | 329 kts | 263° |
| 2026-04-30 18:32 | 55.73816 | 38.99660 | 18802 ft | 326 kts | 264° |
| 2026-04-30 18:32 | 55.73443 | 38.91680 | 18290 ft | 321 kts | 274° |
| 2026-04-30 18:33 | 55.73629 | 38.87741 | 17850 ft | 319 kts | 276° |
| 2026-04-30 18:33 | 55.74051 | 38.79990 | 17039 ft | 315 kts | 276° |
| 2026-04-30 18:33 | 55.74263 | 38.76126 | 16649 ft | 313 kts | 276° |
| 2026-04-30 18:34 | 55.74475 | 38.72289 | 16269 ft | 311 kts | 276° |
| 2026-04-30 18:34 | 55.73986 | 38.64825 | 15483 ft | 312 kts | 245° |
| 2026-04-30 18:34 | 55.72991 | 38.61393 | 15068 ft | 312 kts | 243° |
| 2026-04-30 18:35 | 55.71961 | 38.57999 | 14661 ft | 312 kts | 242° |
| 2026-04-30 18:35 | 55.70927 | 38.54614 | 14258 ft | 312 kts | 242° |
| 2026-04-30 18:35 | 55.69890 | 38.51231 | 13792 ft | 313 kts | 242° |
| 2026-04-30 18:36 | 55.67785 | 38.44399 | 12666 ft | 312 kts | 242° |
| 2026-04-30 18:36 | 55.66770 | 38.41120 | 12116 ft | 302 kts | 242° |
| 2026-04-30 18:36 | 55.64775 | 38.34688 | 10925 ft | 292 kts | 242° |
| 2026-04-30 18:37 | 55.63792 | 38.31521 | 10493 ft | 293 kts | 242° |
| 2026-04-30 18:37 | 55.62807 | 38.28350 | 10066 ft | 293 kts | 242° |
| 2026-04-30 18:37 | 55.62176 | 38.26239 | 9746 ft | 292 kts | 247° |
| 2026-04-30 18:37 | 55.61818 | 38.21571 | 8984 ft | 290 kts | 282° |
| 2026-04-30 18:38 | 55.62561 | 38.18382 | 8308 ft | 281 kts | 307° |
| 2026-04-30 18:38 | 55.63772 | 38.15724 | 7642 ft | 273 kts | 312° |
| 2026-04-30 18:38 | 55.65010 | 38.13204 | 6987 ft | 267 kts | 312° |
| 2026-04-30 18:38 | 55.66218 | 38.10761 | 6520 ft | 261 kts | 312° |
| 2026-04-30 18:39 | 55.67402 | 38.08374 | 6148 ft | 258 kts | 312° |
| 2026-04-30 18:39 | 55.68587 | 38.05994 | 5753 ft | 257 kts | 312° |
| 2026-04-30 18:39 | 55.69771 | 38.03627 | 5301 ft | 256 kts | 312° |
| 2026-04-30 18:39 | 55.70959 | 38.01261 | 4881 ft | 255 kts | 312° |
| 2026-04-30 18:40 | 55.72143 | 37.98920 | 4651 ft | 254 kts | 312° |
| 2026-04-30 18:40 | 55.73329 | 37.96581 | 4567 ft | 255 kts | 312° |
| 2026-04-30 18:40 | 55.74516 | 37.94241 | 4479 ft | 255 kts | 312° |
| 2026-04-30 18:40 | 55.75689 | 37.91926 | 4405 ft | 255 kts | 312° |
| 2026-04-30 18:41 | 55.76877 | 37.89588 | 4321 ft | 254 kts | 314° |
| 2026-04-30 18:41 | 55.78272 | 37.87756 | 4222 ft | 243 kts | 336° |
| 2026-04-30 18:41 | 55.79794 | 37.86796 | 4097 ft | 223 kts | 341° |
| 2026-04-30 18:41 | 55.80753 | 37.86226 | 4027 ft | 215 kts | 341° |
| 2026-04-30 18:42 | 55.82133 | 37.85409 | 4004 ft | 201 kts | 341° |
| 2026-04-30 18:42 | 55.84618 | 37.83926 | 4011 ft | 183 kts | 341° |
| 2026-04-30 18:42 | 55.85803 | 37.83218 | 3919 ft | 181 kts | 341° |
| 2026-04-30 18:45 | 55.97565 | 37.76190 | 2506 ft | 177 kts | 341° |
| 2026-04-30 18:45 | 55.98737 | 37.75488 | 2509 ft | 178 kts | 341° |
| 2026-04-30 18:45 | 55.99845 | 37.74510 | 2510 ft | 178 kts | 323° |
| 2026-04-30 18:46 | 56.00684 | 37.72898 | 2510 ft | 178 kts | 302° |
| 2026-04-30 18:46 | 56.01138 | 37.70876 | 2505 ft | 179 kts | 282° |
| 2026-04-30 18:46 | 56.01144 | 37.68664 | 2506 ft | 180 kts | 259° |
| 2026-04-30 18:46 | 56.00830 | 37.66492 | 2502 ft | 180 kts | 256° |
| 2026-04-30 18:47 | 56.00518 | 37.64359 | 2513 ft | 179 kts | 256° |
| 2026-04-30 18:47 | 56.00195 | 37.62157 | 2506 ft | 180 kts | 256° |
| 2026-04-30 18:47 | 55.99879 | 37.60013 | 2427 ft | 171 kts | 256° |
| 2026-04-30 18:47 | 55.99592 | 37.58070 | 2246 ft | 154 kts | 256° |
| 2026-04-30 18:48 | 55.99336 | 37.56333 | 2063 ft | 139 kts | 257° |
| 2026-04-30 18:48 | 55.99094 | 37.54689 | 1876 ft | 134 kts | 257° |
| 2026-04-30 18:48 | 55.98859 | 37.53097 | 1690 ft | 132 kts | 256° |
| 2026-04-30 18:48 | 55.98625 | 37.51516 | 1490 ft | 131 kts | 256° |
| 2026-04-30 18:49 | 55.98393 | 37.49945 | 1313 ft | 130 kts | 256° |
| 2026-04-30 18:49 | 55.98164 | 37.48402 | 1113 ft | 129 kts | 256° |
| 2026-04-30 18:49 | 55.97938 | 37.46865 | 946 ft | 127 kts | 255° |
| 2026-04-30 18:49 | 55.97717 | 37.45345 | 745 ft | 126 kts | 256° |
| 2026-04-30 18:50 | 55.97490 | 37.43844 | 644 ft | 120 kts | 257° |
| 2026-04-30 18:50 | 55.97312 | 37.42632 | 642 ft | 81 kts | 255° |
| 2026-04-30 18:50 | 55.97199 | 37.41859 | 643 ft | 51 kts | 255° |
| 2026-04-30 18:50 | 55.97137 | 37.41437 | 642 ft | 18 kts | 259° |
| 2026-04-30 18:51 | 55.97208 | 37.41325 | 639 ft | 12 kts | 345° |
| 2026-04-30 18:51 | 55.97239 | 37.41310 | 639 ft | 0 kts | 345° |
| 2026-04-30 18:52 | 55.97255 | 37.41303 | 643 ft | 6 kts | 345° |
| 2026-04-30 18:52 | 55.97315 | 37.41274 | 640 ft | 12 kts | 345° |
| 2026-04-30 18:53 | 55.97400 | 37.41234 | 640 ft | 13 kts | 345° |
| 2026-04-30 18:53 | 55.97495 | 37.41189 | 641 ft | 8 kts | 345° |
| 2026-04-30 18:53 | 55.97573 | 37.41154 | 644 ft | 12 kts | 354° |
| 2026-04-30 18:53 | 55.97633 | 37.41238 | 644 ft | 12 kts | 73° |
| 2026-04-30 18:54 | 55.97648 | 37.41330 | 646 ft | 11 kts | 73° |
| 2026-04-30 18:54 | 55.97667 | 37.41459 | 639 ft | 10 kts | 77° |
| 2026-04-30 18:54 | 55.97682 | 37.41564 | 642 ft | 12 kts | 75° |
| 2026-04-30 18:54 | 55.97702 | 37.41694 | 639 ft | 10 kts | 75° |
| 2026-04-30 18:55 | 55.97721 | 37.41813 | 646 ft | 9 kts | 60° |
| 2026-04-30 18:55 | 55.97779 | 37.41822 | 647 ft | 2 kts | 346° |
| 2026-04-30 18:55 | 55.97791 | 37.41816 | 643 ft | 0 kts | 345° |
| 2026-04-30 18:56 | 55.97795 | 37.41814 | 643 ft | 0 kts | 345° |
| 2026-04-30 18:56 | 55.97796 | 37.41814 | 642 ft | 0 kts | 345° |
| 2026-04-30 18:56 | 55.97798 | 37.41813 | 642 ft | 0 kts | 345° |